• Join FlightAware (Why Join?)
  • Login
  • US Flag 
07:18PM EDT


 

Airport Tracker/Info


-or-


 

Live Flight TrackerFlight Track Log ✈ VH-NWO ✈ 27-May-2013 ✈ YGEL / GET - YMEK / MKR

Flight Track Log - Related Links

Times and Time Zones

All times are in EDT time to prevent confusion due to time zone crossing. See the VH-NWO flight status page for this flight to view local times or setup timezone preferences in your user account.

Time Position Orientation Groundspeed Altitude Reporting Facility
EDT Latitude Longitude Course Direction KTS MPH feet Rate Location/Type
03:12PM -28.7436 114.7917 59° Northeast 23,000  Level Aus ATC (Calculated)
03:13PM -28.6968 114.8772 59° Northeast 23,000 -300 Level Aus ATC (Calculated)
03:15PM -28.6434 114.9747 58° Northeast  Level FlightAware Approximate
03:15PM -28.6500 114.9627 59° Northeast 23,000  Level Aus ATC (Calculated)
03:16PM -28.6500 114.9627 59° Northeast 23,000 -420 Level Aus ATC (Calculated)
03:17PM -28.6032 115.0480 59° Northeast 23,000 -420 Level Aus ATC (Calculated)
03:18PM -28.5859 115.0796 58° Northeast  Level FlightAware Approximate
03:19PM -28.5544 115.1367 58° Northeast  Level FlightAware Approximate
03:19PM -28.5563 115.1333 60° Northeast 23,000  Level Aus ATC (Calculated)
03:20PM -28.5187 115.2016 58° Northeast  Level FlightAware Approximate
03:21PM -28.4890 115.2554 58° Northeast  Level FlightAware Approximate
03:22PM -28.4532 115.3202 58° Northeast  Level FlightAware Approximate
03:22PM -28.4623 115.3037 231° Southwest 23,000  Level Aus ATC (Calculated)
03:23PM -28.4152 115.3888 236° Southwest 23,000 -1,140 Level Aus ATC (Calculated)
03:24PM -28.3948 115.4256 58° Northeast  Level FlightAware Approximate
03:25PM -28.3537 115.4998 58° Northeast  Level FlightAware Approximate
03:25PM -28.4875 115.2680 58° Northeast 185 213 19,400  Level Aus ATC (RADAR)
03:26PM -28.4615 115.3097 55° Northeast 162 186 20,200 840 Climbing Aus ATC (RADAR)
03:27PM -28.4309 115.3644 58° Northeast 181 208 21,200 780 Climbing Aus ATC (RADAR)
03:28PM -28.3984 115.4241 58° Northeast 189 217 22,000 660 Climbing Aus ATC (RADAR)
03:29PM -28.3603 115.4916 57° Northeast 189 217 22,900 420 Climbing Aus ATC (RADAR)
03:31PM -28.3259 115.5508 57° Northeast 208 239 23,100  Climbing Aus ATC (RADAR)
03:31PM -28.2989 115.5866 50° Northeast 210 242 22,900  Descending Aus ATC (RADAR)
03:34PM -28.2067 115.7626 59° Northeast 278 320 23,100  Climbing Aus ATC (RADAR)
03:35PM -28.1640 115.8403 58° Northeast 278 320 23,100  Level Aus ATC (RADAR)
03:36PM -28.1198 115.9201 58° Northeast 276 318 23,100  Level Aus ATC (RADAR)
03:36PM -28.1027 115.9484 56° Northeast 272 313 23,100  Level Aus ATC (RADAR)
03:41PM -27.9084 116.2930 237° Southwest 23,000 -60 Descending Aus ATC (Calculated)
03:43PM -27.9688 116.1867 237° Southwest  Level FlightAware Approximate
03:44PM -27.9339 116.2489 57° Northeast  Level Estimated
03:44PM -27.7833 116.5136 57° Northeast 23,000  Level Aus ATC (Calculated)
03:45PM -27.7475 116.5764 57° Northeast 23,000  Level Aus ATC (Calculated)
03:47PM -27.6799 116.6948 57° Northeast  Level FlightAware Approximate
03:48PM -27.6446 116.7565 57° Northeast  Level FlightAware Approximate
03:49PM -27.6093 116.8182 57° Northeast  Level FlightAware Approximate
03:50PM -27.5740 116.8798 57° Northeast  Level FlightAware Approximate
03:50PM -27.5457 116.9290 57° Northeast 23,000  Level Aus ATC (Calculated)
03:52PM -27.4849 117.0347 57° Northeast  Level FlightAware Approximate
03:53PM -27.4495 117.0961 57° Northeast  Level FlightAware Approximate
03:54PM -27.4140 117.1576 57° Northeast  Level FlightAware Approximate
03:54PM -27.3345 117.2950 237° Southwest 23,000  Level Aus ATC (Calculated)
03:55PM -27.3785 117.2190 57° Northeast  Level FlightAware Approximate
03:56PM -27.2983 117.3573 57° Northeast  Level FlightAware Approximate
03:57PM -27.2628 117.4186 57° Northeast  Level FlightAware Approximate
03:57PM -27.2073 117.5139 156° South 23,000  Level Aus ATC (Calculated)
03:59PM -27.2776 117.5491 156° South  Level FlightAware Approximate
04:00PM -27.2182 117.5193 336° Northwest  Level FlightAware Approximate
04:00PM -27.0953 117.7057 237° Southwest 2,300  Level Aus ATC (Calculated)
04:02PM -27.1412 117.6273 237° Southwest  Level FlightAware Approximate
04:03PM -27.1769 117.5661 237° Southwest  Level FlightAware Approximate
04:03PM -26.9456 117.9608 237° Southwest 2,300  Level Aus ATC (Calculated)
04:04PM -27.2125 117.5050 237° Southwest  Level FlightAware Approximate
04:05PM -26.9916 117.8826 237° Southwest  Level FlightAware Approximate
04:06PM -27.0274 117.8216 237° Southwest  Level FlightAware Approximate
04:06PM -26.8330 118.1517 236° Southwest 2,300  Level Aus ATC (Calculated)
04:08PM -26.8791 118.0736 236° Southwest  Level FlightAware Approximate
04:09PM -26.9150 118.0128 237° Southwest  Level FlightAware Approximate
04:09PM -26.7201 118.3422 59° Northeast 2,300  Level Aus ATC (Calculated)
04:11PM -26.6772 118.4237 57° Northeast  Level Estimated
04:12PM -26.6391 118.4827 54° Northeast  Level FlightAware Approximate
04:12PM -26.6094 118.5400 360° North 1,700  Level Aus ATC (Calculated)
04:12PM -26.6094 118.5400 10° North 1,700  Level Aus ATC (Calculated)
04:13PM -26.6010 118.5417 54° Northeast  Level FlightAware Approximate
04:14PM -26.6117 118.5478 289° West  Level Estimated
04:15PM -26.6117 118.5478 288° West  Level Estimated